Terminal Aerodrome Forecast
Issued by NWS Caribou, ME

Home | Current Version | Previous Version | Text Only | Print | Product List | Glossary On
Versions: 1 2 3 4 5 6 7 8 9 10 11 12 13 14 15 16 17 18 19 20 21
000
FTUS41 KCAR 171730
TAFCAR
TAF
KCAR 171730Z 1718/1818 31017G30KT P6SM OVC020
     FM172100 31016G30KT P6SM OVC025
     FM180000 31014G22KT P6SM BKN035
     FM180300 31013G21KT P6SM SCT035
     FM181600 30005KT P6SM BKN050=

USA.gov is the U.S. government's official web portal to all federal, state and local government web resources and services.